createdAt,value
2023-03-15T00:01:39.296Z,8.74
2023-03-15T00:04:07.828Z,8.73
2023-03-15T00:06:36.593Z,8.76
2023-03-15T00:09:06.687Z,8.80
2023-03-15T00:11:35.152Z,8.82
2023-03-15T00:14:03.824Z,8.83
2023-03-15T00:16:33.058Z,8.87
2023-03-15T00:19:01.893Z,8.94
2023-03-15T00:21:30.386Z,8.98
2023-03-15T00:23:58.974Z,8.99
2023-03-15T00:26:28.923Z,8.96
2023-03-15T00:28:57.234Z,8.95
2023-03-15T00:31:26.940Z,8.91
2023-03-15T00:33:55.459Z,8.92
2023-03-15T00:36:26.818Z,8.70
2023-03-15T00:38:57.171Z,8.95
2023-03-15T00:41:26.020Z,8.82
2023-03-15T00:43:55.860Z,8.93
2023-03-15T00:46:24.366Z,8.84
2023-03-15T00:48:53.299Z,8.82
2023-03-15T00:51:23.564Z,8.79
2023-03-15T00:53:53.598Z,8.75
2023-03-15T00:56:24.336Z,8.67
2023-03-15T00:58:54.102Z,8.58
2023-03-15T01:01:26.176Z,8.44
2023-03-15T01:03:55.387Z,8.31
2023-03-15T01:06:29.110Z,8.20
2023-03-15T01:08:57.980Z,8.19
2023-03-15T01:11:29.047Z,8.02
2023-03-15T01:14:00.259Z,8.07
2023-03-15T01:16:30.252Z,7.96
2023-03-15T01:18:58.735Z,7.93
2023-03-15T01:21:27.154Z,7.88
2023-03-15T01:23:55.918Z,7.78
2023-03-15T01:26:24.974Z,7.70
2023-03-15T01:28:53.561Z,7.62
2023-03-15T01:31:24.678Z,7.63
2023-03-15T01:33:54.771Z,7.61
2023-03-15T01:36:24.413Z,7.63
2023-03-15T01:38:54.004Z,7.52
2023-03-15T01:41:27.618Z,7.58
2023-03-15T01:43:56.301Z,7.60
2023-03-15T01:46:27.649Z,7.67
2023-03-15T01:49:08.511Z,7.71
2023-03-15T01:51:47.516Z,7.54
2023-03-15T01:54:20.616Z,7.61
2023-03-15T01:56:56.191Z,7.55
2023-03-15T01:59:30.864Z,7.52
2023-03-15T02:02:01.343Z,7.51
2023-03-15T02:04:35.691Z,7.54
2023-03-15T02:07:06.598Z,7.45
2023-03-15T02:09:43.024Z,7.48
2023-03-15T02:12:12.621Z,7.40
2023-03-15T02:14:44.204Z,7.38
2023-03-15T02:17:17.045Z,7.31
2023-03-15T02:19:57.977Z,7.24
2023-03-15T02:22:33.788Z,7.15
2023-03-15T02:25:09.722Z,7.13
2023-03-15T02:27:41.025Z,7.14
2023-03-15T02:30:11.580Z,7.14
2023-03-15T02:32:40.322Z,7.13
2023-03-15T02:35:09.465Z,7.11
2023-03-15T02:37:37.879Z,7.11
2023-03-15T02:40:18.200Z,7.10
2023-03-15T02:42:49.926Z,7.27
2023-03-15T02:45:19.866Z,7.37
2023-03-15T02:47:50.080Z,7.41
2023-03-15T02:50:18.955Z,7.46
2023-03-15T02:52:47.474Z,7.30
2023-03-15T02:55:16.998Z,7.53
2023-03-15T02:57:45.430Z,7.53
2023-03-15T03:00:16.233Z,7.60
2023-03-15T03:02:47.845Z,7.70
2023-03-15T03:05:17.861Z,7.80
2023-03-15T03:07:47.068Z,7.87
2023-03-15T03:10:19.068Z,7.97
2023-03-15T03:13:05.239Z,8.04
2023-03-15T03:15:38.546Z,7.93
2023-03-15T03:18:07.072Z,8.18
2023-03-15T03:20:35.480Z,8.23
2023-03-15T03:23:06.251Z,8.29
2023-03-15T03:25:36.809Z,8.32
2023-03-15T03:28:05.394Z,8.34
2023-03-15T03:30:36.742Z,8.38
2023-03-15T03:33:06.798Z,8.40
2023-03-15T03:35:35.194Z,8.45
2023-03-15T03:38:03.609Z,8.47
2023-03-15T03:40:37.320Z,8.46
2023-03-15T03:43:07.533Z,8.47
2023-03-15T03:45:36.886Z,8.49
2023-03-15T03:48:07.893Z,8.53
2023-03-15T03:50:36.584Z,8.54
2023-03-15T03:53:05.038Z,8.56
2023-03-15T03:55:36.145Z,8.57
2023-03-15T03:58:04.583Z,8.59
2023-03-15T04:00:41.900Z,8.45
2023-03-15T04:03:13.120Z,8.48
2023-03-15T04:05:46.528Z,8.46
2023-03-15T04:08:19.139Z,8.40
2023-03-15T04:10:50.700Z,8.39
2023-03-15T04:13:19.186Z,8.37
2023-03-15T04:15:47.887Z,8.34
2023-03-15T04:18:19.693Z,8.37
2023-03-15T04:20:49.235Z,8.37
2023-03-15T04:23:20.353Z,8.37
2023-03-15T04:26:07.672Z,8.34
2023-03-15T04:29:00.630Z,8.33
2023-03-15T04:31:37.934Z,8.11
2023-03-15T04:34:29.581Z,8.24
2023-03-15T04:37:32.316Z,8.17
2023-03-15T04:40:19.395Z,8.20
2023-03-15T04:42:47.833Z,8.18
2023-03-15T04:45:34.224Z,8.11
2023-03-15T04:48:03.553Z,8.00
2023-03-15T04:50:40.960Z,8.05
2023-03-15T04:53:21.505Z,8.03
2023-03-15T04:56:19.166Z,7.99
2023-03-15T04:59:07.124Z,7.97
2023-03-15T05:01:40.497Z,7.99
2023-03-15T05:04:39.056Z,7.97
2023-03-15T05:07:20.424Z,7.97
2023-03-15T05:09:59.923Z,7.97
2023-03-15T05:12:38.666Z,7.91
2023-03-15T05:15:22.815Z,7.87
2023-03-15T05:17:58.928Z,7.87
2023-03-15T05:20:42.158Z,7.83
2023-03-15T05:23:17.928Z,7.83
2023-03-15T05:26:04.955Z,7.81
2023-03-15T05:29:03.814Z,7.78
2023-03-15T05:31:55.593Z,7.77
2023-03-15T05:34:24.673Z,7.76
2023-03-15T05:37:13.633Z,7.72
2023-03-15T05:40:18.785Z,7.59
2023-03-15T05:42:58.225Z,7.59
2023-03-15T05:45:36.793Z,7.59
2023-03-15T05:48:40.277Z,7.47
2023-03-15T05:51:30.791Z,7.37
2023-03-15T05:54:25.388Z,7.28
2023-03-15T05:57:18.076Z,7.17
2023-03-15T06:00:07.216Z,7.13
2023-03-15T06:02:45.676Z,7.07
2023-03-15T06:05:34.425Z,6.98
2023-03-15T06:08:05.585Z,7.01
2023-03-15T06:10:36.111Z,7.02
2023-03-15T06:13:10.019Z,7.07
2023-03-15T06:15:39.347Z,7.03
2023-03-15T06:18:09.592Z,7.08
2023-03-15T06:20:38.742Z,7.10
2023-03-15T06:23:11.886Z,7.18
2023-03-15T06:25:45.799Z,7.23
2023-03-15T06:28:16.576Z,7.28
2023-03-15T06:30:51.616Z,7.34
2023-03-15T06:33:26.256Z,7.41
2023-03-15T06:35:54.710Z,7.49
2023-03-15T06:38:23.012Z,7.52
2023-03-15T06:40:51.408Z,7.63
2023-03-15T06:43:21.160Z,7.65
2023-03-15T06:45:50.081Z,7.75
2023-03-15T06:48:18.741Z,7.79
2023-03-15T06:50:47.977Z,7.87
2023-03-15T06:53:17.908Z,7.93
2023-03-15T06:55:47.147Z,8.01
2023-03-15T06:58:16.524Z,8.09
2023-03-15T07:00:46.280Z,7.40
2023-03-15T07:03:14.636Z,8.28
2023-03-15T07:05:43.123Z,8.39
2023-03-15T07:08:11.527Z,8.50
2023-03-15T07:10:39.961Z,8.62
2023-03-15T07:13:09.460Z,8.75
2023-03-15T07:15:38.562Z,8.91
2023-03-15T07:18:08.396Z,9.05
2023-03-15T07:20:37.816Z,9.03
2023-03-15T07:23:06.761Z,9.42
2023-03-15T07:25:48.362Z,9.60
2023-03-15T07:28:23.259Z,9.78
2023-03-15T07:30:55.928Z,9.98
2023-03-15T07:33:26.968Z,10.07
2023-03-15T07:35:57.141Z,10.17
2023-03-15T07:38:28.960Z,10.25
2023-03-15T07:40:58.475Z,10.30
2023-03-15T07:43:26.843Z,10.39
2023-03-15T07:46:08.237Z,10.53
2023-03-15T07:48:38.289Z,10.69
2023-03-15T07:51:09.565Z,10.84
2023-03-15T07:53:38.316Z,10.95
2023-03-15T07:56:07.205Z,11.00
2023-03-15T07:58:35.651Z,11.08
2023-03-15T08:01:05.708Z,11.16
2023-03-15T08:03:34.214Z,11.28
2023-03-15T08:06:04.167Z,11.59
2023-03-15T08:08:32.579Z,11.88
2023-03-15T08:11:01.121Z,12.06
2023-03-15T08:13:29.734Z,12.24
2023-03-15T08:15:58.310Z,12.37
2023-03-15T08:18:31.491Z,12.37
2023-03-15T08:21:01.303Z,12.40
2023-03-15T08:23:31.383Z,12.36
2023-03-15T08:25:59.859Z,12.36
2023-03-15T08:28:28.207Z,12.35
2023-03-15T08:30:56.606Z,12.35
2023-03-15T08:33:25.065Z,12.22
2023-03-15T08:35:54.673Z,12.07
2023-03-15T08:38:23.299Z,12.31
2023-03-15T08:40:57.324Z,12.44
2023-03-15T08:43:26.216Z,12.55
2023-03-15T08:46:01.027Z,12.62
2023-03-15T08:48:31.667Z,12.65
2023-03-15T08:51:04.298Z,12.70
2023-03-15T08:53:33.281Z,12.67
2023-03-15T08:56:04.218Z,12.71
2023-03-15T08:58:32.811Z,12.81
2023-03-15T09:01:01.099Z,12.92
2023-03-15T09:03:29.648Z,13.03
2023-03-15T09:05:58.775Z,13.15
2023-03-15T09:08:28.042Z,13.23
2023-03-15T09:10:57.155Z,13.27
2023-03-15T09:13:27.518Z,13.26
2023-03-15T09:15:57.320Z,13.15
2023-03-15T09:18:26.103Z,13.13
2023-03-15T09:20:55.021Z,13.07
2023-03-15T09:23:24.181Z,13.04
2023-03-15T09:25:52.738Z,13.02
2023-03-15T09:28:21.209Z,13.04
2023-03-15T09:30:50.966Z,13.06
2023-03-15T09:33:19.328Z,13.12
2023-03-15T09:35:47.827Z,13.17
2023-03-15T09:38:16.298Z,13.18
2023-03-15T09:40:46.355Z,13.17
2023-03-15T09:43:44.937Z,13.20
2023-03-15T09:46:27.944Z,13.19
2023-03-15T09:49:01.322Z,13.28
2023-03-15T09:51:39.823Z,13.29
2023-03-15T09:54:14.109Z,13.30
2023-03-15T09:56:47.283Z,13.33
2023-03-15T09:59:22.734Z,13.33
2023-03-15T10:01:56.404Z,13.30
2023-03-15T10:04:29.523Z,13.27
2023-03-15T10:07:00.037Z,13.26
2023-03-15T10:09:33.350Z,13.30
2023-03-15T10:12:05.876Z,13.34
2023-03-15T10:14:50.064Z,13.38
2023-03-15T10:17:25.913Z,13.39
2023-03-15T10:20:01.411Z,13.43
2023-03-15T10:22:35.593Z,13.48
2023-03-15T10:25:12.682Z,13.47
2023-03-15T10:27:47.227Z,13.58
2023-03-15T10:30:19.021Z,13.49
2023-03-15T10:32:53.420Z,13.66
2023-03-15T10:35:22.280Z,13.74
2023-03-15T10:37:50.744Z,13.80
2023-03-15T10:40:41.040Z,13.92
2023-03-15T10:43:18.291Z,14.03
2023-03-15T10:45:51.510Z,14.20
2023-03-15T10:48:21.933Z,14.39
2023-03-15T10:50:52.531Z,14.45
2023-03-15T10:53:22.270Z,14.58
2023-03-15T10:55:51.030Z,14.72
2023-03-15T10:58:27.729Z,14.55
2023-03-15T11:01:02.073Z,15.03
2023-03-15T11:03:33.176Z,15.13
2023-03-15T11:06:02.210Z,15.25
2023-03-15T11:08:39.100Z,15.45
2023-03-15T11:11:09.095Z,15.53
2023-03-15T11:13:39.194Z,15.56
2023-03-15T11:16:19.966Z,15.75
2023-03-15T11:18:53.797Z,15.88
2023-03-15T11:21:25.407Z,16.02
2023-03-15T11:23:55.197Z,16.21
2023-03-15T11:26:33.591Z,16.38
2023-03-15T11:29:08.146Z,16.52
2023-03-15T11:31:37.671Z,16.47
2023-03-15T11:34:13.576Z,16.45
2023-03-15T11:36:49.054Z,16.48
2023-03-15T11:39:34.118Z,16.45
2023-03-15T11:42:10.520Z,16.55
2023-03-15T11:44:45.127Z,16.60
2023-03-15T11:47:21.930Z,16.60
2023-03-15T11:49:54.639Z,16.65
2023-03-15T11:52:26.429Z,16.53
2023-03-15T11:54:58.628Z,16.74
2023-03-15T11:57:45.984Z,16.71
2023-03-15T12:00:47.230Z,16.84
2023-03-15T12:03:40.658Z,16.90
2023-03-15T12:06:29.974Z,16.91
2023-03-15T12:08:58.444Z,17.02
2023-03-15T12:11:43.006Z,16.88
2023-03-15T12:14:30.086Z,17.11
2023-03-15T12:17:39.373Z,16.97
2023-03-15T12:20:14.721Z,16.86
2023-03-15T12:22:50.915Z,16.83
2023-03-15T12:25:33.938Z,17.15
2023-03-15T12:28:09.794Z,17.11
2023-03-15T12:30:42.200Z,17.21
2023-03-15T12:33:16.910Z,17.40
2023-03-15T12:35:45.789Z,17.50
2023-03-15T12:38:20.025Z,17.65
2023-03-15T12:40:54.774Z,17.65
2023-03-15T12:43:41.822Z,17.62
2023-03-15T12:46:50.250Z,17.59
2023-03-15T12:49:31.902Z,17.58
2023-03-15T12:52:04.284Z,17.31
2023-03-15T12:54:40.632Z,17.65
2023-03-15T12:57:13.088Z,17.69
2023-03-15T12:59:53.352Z,17.79
2023-03-15T13:02:42.790Z,17.89
2023-03-15T13:05:23.832Z,17.96
2023-03-15T13:07:58.270Z,17.96
2023-03-15T13:10:39.197Z,17.89
2023-03-15T13:13:34.067Z,17.80
2023-03-15T13:16:23.079Z,17.78
2023-03-15T13:19:00.578Z,17.81
2023-03-15T13:21:35.062Z,17.84
2023-03-15T13:24:05.571Z,17.70
2023-03-15T13:26:55.713Z,17.81
2023-03-15T13:29:28.923Z,17.87
2023-03-15T13:32:08.224Z,17.93
2023-03-15T13:34:37.357Z,17.94
2023-03-15T13:37:12.238Z,17.92
2023-03-15T13:39:40.779Z,17.97
2023-03-15T13:42:20.141Z,17.94
2023-03-15T13:44:48.626Z,17.92
2023-03-15T13:47:22.096Z,17.98
2023-03-15T13:49:53.845Z,18.04
2023-03-15T13:52:22.500Z,18.03
2023-03-15T13:54:54.777Z,17.98
2023-03-15T13:57:26.111Z,17.97
2023-03-15T14:00:00.728Z,17.93
2023-03-15T14:02:38.310Z,17.87
2023-03-15T14:05:09.908Z,17.85
2023-03-15T14:07:40.231Z,17.82
2023-03-15T14:10:27.650Z,17.90
2023-03-15T14:12:58.372Z,17.90
2023-03-15T14:15:28.884Z,17.88
2023-03-15T14:18:02.957Z,17.88
2023-03-15T14:20:37.089Z,17.85
2023-03-15T14:23:07.882Z,18.03
2023-03-15T14:25:37.573Z,18.04
2023-03-15T14:28:07.995Z,17.99
2023-03-15T14:30:38.487Z,17.16
2023-03-15T14:33:09.007Z,17.90
2023-03-15T14:35:46.359Z,17.88
2023-03-15T14:38:19.914Z,17.82
2023-03-15T14:40:49.015Z,17.82
2023-03-15T14:43:19.317Z,17.77
2023-03-15T14:45:49.326Z,17.72
2023-03-15T14:48:27.723Z,17.72
2023-03-15T14:50:56.676Z,17.67
2023-03-15T14:53:28.039Z,17.68
2023-03-15T14:55:56.412Z,17.63
2023-03-15T14:58:26.191Z,17.58
2023-03-15T15:00:58.104Z,17.57
2023-03-15T15:03:35.743Z,17.57
2023-03-15T15:06:04.386Z,17.62
2023-03-15T15:08:33.843Z,17.63
2023-03-15T15:11:02.841Z,17.58
2023-03-15T15:13:32.983Z,17.54
2023-03-15T15:16:01.429Z,17.54
2023-03-15T15:18:31.728Z,17.54
2023-03-15T15:21:03.102Z,17.56
2023-03-15T15:23:33.674Z,17.44
2023-03-15T15:26:04.717Z,17.60
2023-03-15T15:28:37.374Z,17.63
2023-03-15T15:31:07.571Z,17.53
2023-03-15T15:33:36.504Z,17.45
2023-03-15T15:36:05.353Z,17.42
2023-03-15T15:38:39.039Z,17.40
2023-03-15T15:41:12.979Z,17.36
2023-03-15T15:43:43.514Z,17.33
2023-03-15T15:46:13.405Z,17.32
2023-03-15T15:48:42.552Z,17.34
2023-03-15T15:51:22.570Z,17.19
2023-03-15T15:53:51.493Z,17.25
2023-03-15T15:56:19.915Z,17.24
2023-03-15T15:58:50.390Z,17.33
2023-03-15T16:01:18.887Z,17.36
2023-03-15T16:03:47.278Z,17.37
2023-03-15T16:06:19.696Z,17.35
2023-03-15T16:08:50.837Z,17.13
2023-03-15T16:11:19.943Z,17.15
2023-03-15T16:13:54.023Z,17.17
2023-03-15T16:16:22.867Z,17.16
2023-03-15T16:18:51.179Z,17.10
2023-03-15T16:21:26.166Z,17.06
2023-03-15T16:23:59.853Z,17.00
2023-03-15T16:26:29.196Z,16.95
2023-03-15T16:28:58.989Z,16.90
2023-03-15T16:31:27.404Z,16.83
2023-03-15T16:33:56.474Z,16.78
2023-03-15T16:36:25.468Z,16.73
2023-03-15T16:38:53.743Z,16.74
2023-03-15T16:41:22.158Z,16.72
2023-03-15T16:43:50.539Z,16.70
2023-03-15T16:46:20.506Z,16.66
2023-03-15T16:48:49.057Z,16.57
2023-03-15T16:51:18.112Z,16.50
2023-03-15T16:53:46.688Z,16.43
2023-03-15T16:56:16.631Z,16.41
2023-03-15T16:58:46.118Z,16.33
2023-03-15T17:01:14.641Z,16.24
2023-03-15T17:03:44.449Z,16.09
2023-03-15T17:06:20.260Z,15.88
2023-03-15T17:08:49.157Z,15.91
2023-03-15T17:11:18.583Z,15.87
2023-03-15T17:13:47.457Z,15.82
2023-03-15T17:16:16.779Z,15.74
2023-03-15T17:18:47.859Z,15.64
2023-03-15T17:21:19.756Z,15.51
2023-03-15T17:23:49.772Z,15.39
2023-03-15T17:26:20.628Z,15.17
2023-03-15T17:28:49.851Z,15.20
2023-03-15T17:31:24.970Z,15.11
2023-03-15T17:33:55.502Z,15.09
2023-03-15T17:36:26.088Z,15.01
2023-03-15T17:38:55.696Z,14.91
2023-03-15T17:41:28.672Z,14.66
2023-03-15T17:43:57.514Z,14.45
2023-03-15T17:46:30.530Z,14.62
2023-03-15T17:49:01.201Z,14.31
2023-03-15T17:51:31.517Z,14.25
2023-03-15T17:54:00.820Z,14.20
2023-03-15T17:56:30.432Z,14.12
2023-03-15T17:58:58.846Z,14.01
2023-03-15T18:01:29.200Z,13.89
2023-03-15T18:03:59.430Z,13.79
2023-03-15T18:06:27.936Z,13.72
2023-03-15T18:08:56.417Z,13.65
2023-03-15T18:11:27.491Z,13.61
2023-03-15T18:13:56.931Z,13.52
2023-03-15T18:16:25.593Z,13.48
2023-03-15T18:18:54.113Z,13.35
2023-03-15T18:21:26.817Z,13.19
2023-03-15T18:23:56.517Z,12.96
2023-03-15T18:26:25.127Z,12.81
2023-03-15T18:28:53.633Z,12.63
2023-03-15T18:31:24.293Z,12.52
2023-03-15T18:33:53.985Z,12.30
2023-03-15T18:36:24.397Z,12.10
2023-03-15T18:38:53.049Z,11.99
2023-03-15T18:41:24.781Z,11.79
2023-03-15T18:43:53.574Z,11.69
2023-03-15T18:46:24.474Z,11.65
2023-03-15T18:48:54.616Z,11.57
2023-03-15T18:51:28.296Z,11.46
2023-03-15T18:53:57.452Z,11.23
2023-03-15T18:56:27.129Z,10.86
2023-03-15T18:58:56.743Z,10.79
2023-03-15T19:01:25.593Z,10.50
2023-03-15T19:03:55.194Z,10.54
2023-03-15T19:06:26.820Z,10.41
2023-03-15T19:08:55.381Z,10.31
2023-03-15T19:11:24.568Z,10.18
2023-03-15T19:13:53.111Z,10.05
2023-03-15T19:16:22.905Z,9.91
2023-03-15T19:18:52.132Z,9.84
2023-03-15T19:21:21.025Z,9.85
2023-03-15T19:23:51.231Z,9.85
2023-03-15T19:26:19.584Z,9.75
2023-03-15T19:28:47.985Z,9.61
2023-03-15T19:31:16.424Z,9.47
2023-03-15T19:33:44.895Z,9.24
2023-03-15T19:36:13.319Z,9.10
2023-03-15T19:38:41.831Z,9.01
2023-03-15T19:41:13.115Z,9.31
2023-03-15T19:43:43.624Z,9.35
2023-03-15T19:46:14.132Z,9.38
2023-03-15T19:48:43.118Z,9.32
2023-03-15T19:51:11.532Z,9.25
2023-03-15T19:53:40.008Z,9.19
2023-03-15T19:56:09.773Z,9.05
2023-03-15T19:58:39.743Z,8.83
2023-03-15T20:01:08.113Z,8.66
2023-03-15T20:03:36.479Z,8.60
2023-03-15T20:06:06.963Z,8.43
2023-03-15T20:08:35.494Z,8.24
2023-03-15T20:11:05.317Z,8.20
2023-03-15T20:13:33.982Z,7.97
2023-03-15T20:16:04.259Z,7.97
2023-03-15T20:18:33.427Z,7.96
2023-03-15T20:21:01.844Z,7.95
2023-03-15T20:23:30.391Z,8.01
2023-03-15T20:26:06.201Z,8.02
2023-03-15T20:28:34.662Z,7.75
2023-03-15T20:31:08.855Z,7.78
2023-03-15T20:33:37.573Z,7.52
2023-03-15T20:36:06.599Z,7.37
2023-03-15T20:38:37.309Z,7.33
2023-03-15T20:41:06.382Z,7.28
2023-03-15T20:43:35.200Z,7.22
2023-03-15T20:46:04.530Z,7.14
2023-03-15T20:48:36.144Z,6.76
2023-03-15T20:51:06.162Z,7.05
2023-03-15T20:53:36.401Z,7.03
2023-03-15T20:56:06.589Z,7.02
2023-03-15T20:58:35.102Z,6.91
2023-03-15T21:01:05.068Z,7.03
2023-03-15T21:03:35.507Z,7.04
2023-03-15T21:06:05.065Z,7.01
2023-03-15T21:08:34.731Z,7.03
2023-03-15T21:11:03.157Z,7.01
2023-03-15T21:13:31.648Z,7.10
2023-03-15T21:16:00.533Z,7.17
2023-03-15T21:18:29.048Z,7.20
2023-03-15T21:21:00.264Z,7.18
2023-03-15T21:23:31.228Z,7.13
2023-03-15T21:26:00.415Z,7.12
2023-03-15T21:28:28.992Z,7.07
2023-03-15T21:30:58.326Z,6.92
2023-03-15T21:33:28.644Z,6.84
2023-03-15T21:35:59.447Z,6.66
2023-03-15T21:38:29.111Z,6.54
2023-03-15T21:40:59.549Z,6.46
2023-03-15T21:43:29.892Z,6.50
2023-03-15T21:46:01.421Z,6.53
2023-03-15T21:48:30.692Z,6.52
2023-03-15T21:51:02.030Z,6.52
2023-03-15T21:53:31.483Z,6.54
2023-03-15T21:56:00.414Z,6.51
2023-03-15T21:58:29.507Z,6.53
2023-03-15T22:00:59.959Z,6.47
2023-03-15T22:03:29.496Z,6.49
2023-03-15T22:05:58.223Z,6.36
2023-03-15T22:08:28.202Z,6.27
2023-03-15T22:10:57.998Z,6.15
2023-03-15T22:13:26.968Z,5.98
2023-03-15T22:15:55.422Z,6.14
2023-03-15T22:18:24.352Z,6.22
2023-03-15T22:20:53.146Z,6.29
2023-03-15T22:23:21.879Z,6.32
2023-03-15T22:25:53.683Z,6.26
2023-03-15T22:28:22.592Z,6.27
2023-03-15T22:30:51.797Z,6.12
2023-03-15T22:33:21.620Z,6.19
2023-03-15T22:35:55.917Z,6.05
2023-03-15T22:38:25.161Z,6.20
2023-03-15T22:41:01.846Z,5.79
2023-03-15T22:43:30.428Z,5.97
2023-03-15T22:45:58.865Z,6.00
2023-03-15T22:48:27.316Z,5.94
2023-03-15T22:51:00.360Z,5.97
2023-03-15T22:53:29.684Z,6.02
2023-03-15T22:55:59.907Z,6.08
2023-03-15T22:58:28.581Z,5.91
2023-03-15T23:00:56.959Z,6.09
2023-03-15T23:03:26.414Z,6.01
2023-03-15T23:05:55.253Z,5.81
2023-03-15T23:08:24.340Z,5.62
2023-03-15T23:10:53.089Z,5.72
2023-03-15T23:13:22.953Z,5.76
2023-03-15T23:15:51.568Z,5.83
2023-03-15T23:18:20.178Z,5.87
2023-03-15T23:20:48.655Z,5.87
2023-03-15T23:23:17.233Z,5.86
2023-03-15T23:25:46.029Z,5.83
2023-03-15T23:28:17.439Z,5.79
2023-03-15T23:30:47.173Z,5.75
2023-03-15T23:33:15.537Z,5.58
2023-03-15T23:35:43.962Z,5.58
2023-03-15T23:38:13.728Z,5.49
2023-03-15T23:40:42.171Z,5.47
2023-03-15T23:43:10.719Z,5.42
2023-03-15T23:45:39.982Z,5.45
2023-03-15T23:48:09.907Z,5.46
2023-03-15T23:50:39.395Z,5.45
2023-03-15T23:53:07.853Z,5.39
2023-03-15T23:55:36.295Z,5.37
2023-03-15T23:58:06.874Z,5.35
